sensor_id;sensor_type;location;lat;lon;timestamp;P1;durP1;ratioP1;P2;durP2;ratioP2
42726;SDS011;28372;56.832;60.658;2023-04-19T00:01:02;4.20;;;1.63;;
42726;SDS011;28372;56.832;60.658;2023-04-19T00:03:30;3.95;;;1.30;;
42726;SDS011;28372;56.832;60.658;2023-04-19T00:05:58;3.63;;;1.30;;
42726;SDS011;28372;56.832;60.658;2023-04-19T00:08:25;3.28;;;1.30;;
42726;SDS011;28372;56.832;60.658;2023-04-19T00:10:53;4.03;;;1.50;;
42726;SDS011;28372;56.832;60.658;2023-04-19T00:13:21;4.40;;;1.60;;
42726;SDS011;28372;56.832;60.658;2023-04-19T00:15:48;4.22;;;1.17;;
42726;SDS011;28372;56.832;60.658;2023-04-19T00:18:16;4.93;;;1.50;;
42726;SDS011;28372;56.832;60.658;2023-04-19T00:20:43;2.75;;;1.20;;
42726;SDS011;28372;56.832;60.658;2023-04-19T00:23:11;3.15;;;1.38;;
42726;SDS011;28372;56.832;60.658;2023-04-19T00:25:38;4.68;;;1.38;;
42726;SDS011;28372;56.832;60.658;2023-04-19T00:28:06;2.85;;;1.30;;
42726;SDS011;28372;56.832;60.658;2023-04-19T00:30:34;6.25;;;1.30;;
42726;SDS011;28372;56.832;60.658;2023-04-19T00:33:01;2.75;;;1.25;;
42726;SDS011;28372;56.832;60.658;2023-04-19T00:35:29;2.72;;;1.40;;
42726;SDS011;28372;56.832;60.658;2023-04-19T00:37:56;3.22;;;1.13;;
42726;SDS011;28372;56.832;60.658;2023-04-19T00:40:24;3.10;;;1.10;;
42726;SDS011;28372;56.832;60.658;2023-04-19T00:42:51;2.88;;;1.05;;
42726;SDS011;28372;56.832;60.658;2023-04-19T00:45:19;3.53;;;1.20;;
42726;SDS011;28372;56.832;60.658;2023-04-19T00:47:46;3.65;;;1.20;;
42726;SDS011;28372;56.832;60.658;2023-04-19T00:50:14;2.92;;;1.38;;
42726;SDS011;28372;56.832;60.658;2023-04-19T00:52:42;2.28;;;1.20;;
42726;SDS011;28372;56.832;60.658;2023-04-19T00:55:10;4.13;;;1.20;;
42726;SDS011;28372;56.832;60.658;2023-04-19T00:57:38;2.67;;;1.27;;
42726;SDS011;28372;56.832;60.658;2023-04-19T01:00:08;3.67;;;1.63;;
42726;SDS011;28372;56.832;60.658;2023-04-19T01:02:36;3.55;;;1.40;;
42726;SDS011;28372;56.832;60.658;2023-04-19T01:05:04;4.68;;;1.35;;
42726;SDS011;28372;56.832;60.658;2023-04-19T01:07:32;3.13;;;1.15;;
42726;SDS011;28372;56.832;60.658;2023-04-19T01:10:00;5.03;;;1.40;;
42726;SDS011;28372;56.832;60.658;2023-04-19T01:12:28;3.47;;;1.52;;
42726;SDS011;28372;56.832;60.658;2023-04-19T01:14:56;3.90;;;1.50;;
42726;SDS011;28372;56.832;60.658;2023-04-19T01:17:23;4.10;;;1.27;;
42726;SDS011;28372;56.832;60.658;2023-04-19T01:20:02;3.30;;;1.27;;
42726;SDS011;28372;56.832;60.658;2023-04-19T01:22:35;3.67;;;1.20;;
42726;SDS011;28372;56.832;60.658;2023-04-19T01:25:05;8.13;;;1.75;;
42726;SDS011;28372;56.832;60.658;2023-04-19T01:27:33;7.28;;;1.70;;
42726;SDS011;28372;56.832;60.658;2023-04-19T01:30:01;3.97;;;1.65;;
42726;SDS011;28372;56.832;60.658;2023-04-19T01:32:29;3.95;;;1.48;;
42726;SDS011;28372;56.832;60.658;2023-04-19T01:34:57;5.38;;;1.42;;
42726;SDS011;28372;56.832;60.658;2023-04-19T01:37:24;6.70;;;1.60;;
42726;SDS011;28372;56.832;60.658;2023-04-19T01:39:52;3.50;;;1.42;;
42726;SDS011;28372;56.832;60.658;2023-04-19T01:42:19;5.43;;;1.50;;
42726;SDS011;28372;56.832;60.658;2023-04-19T01:44:47;6.38;;;2.05;;
42726;SDS011;28372;56.832;60.658;2023-04-19T01:47:14;3.63;;;1.50;;
42726;SDS011;28372;56.832;60.658;2023-04-19T01:49:42;4.10;;;1.90;;
42726;SDS011;28372;56.832;60.658;2023-04-19T01:52:10;7.97;;;2.03;;
42726;SDS011;28372;56.832;60.658;2023-04-19T01:54:37;4.72;;;1.50;;
42726;SDS011;28372;56.832;60.658;2023-04-19T01:57:05;6.85;;;1.67;;
42726;SDS011;28372;56.832;60.658;2023-04-19T01:59:32;6.32;;;1.65;;
42726;SDS011;28372;56.832;60.658;2023-04-19T02:01:59;3.63;;;1.35;;
42726;SDS011;28372;56.832;60.658;2023-04-19T02:04:27;5.15;;;1.45;;
42726;SDS011;28372;56.832;60.658;2023-04-19T02:06:56;7.63;;;1.88;;
42726;SDS011;28372;56.832;60.658;2023-04-19T02:09:25;6.50;;;1.73;;
42726;SDS011;28372;56.832;60.658;2023-04-19T02:11:52;8.30;;;2.15;;
42726;SDS011;28372;56.832;60.658;2023-04-19T02:14:20;4.72;;;1.73;;
42726;SDS011;28372;56.832;60.658;2023-04-19T02:16:48;5.30;;;1.80;;
42726;SDS011;28372;56.832;60.658;2023-04-19T02:19:15;4.10;;;1.45;;
42726;SDS011;28372;56.832;60.658;2023-04-19T02:21:44;5.53;;;1.50;;
42726;SDS011;28372;56.832;60.658;2023-04-19T02:24:13;4.65;;;1.60;;
42726;SDS011;28372;56.832;60.658;2023-04-19T02:26:41;7.20;;;1.80;;
42726;SDS011;28372;56.832;60.658;2023-04-19T02:29:08;7.80;;;2.30;;
42726;SDS011;28372;56.832;60.658;2023-04-19T02:31:37;7.25;;;1.67;;
42726;SDS011;28372;56.832;60.658;2023-04-19T02:34:07;4.68;;;2.00;;
42726;SDS011;28372;56.832;60.658;2023-04-19T02:36:35;6.25;;;1.55;;
42726;SDS011;28372;56.832;60.658;2023-04-19T02:39:03;4.60;;;1.77;;
42726;SDS011;28372;56.832;60.658;2023-04-19T02:41:31;6.72;;;2.10;;
42726;SDS011;28372;56.832;60.658;2023-04-19T02:44:00;7.28;;;2.15;;
42726;SDS011;28372;56.832;60.658;2023-04-19T02:46:28;5.65;;;1.65;;
42726;SDS011;28372;56.832;60.658;2023-04-19T02:48:59;7.13;;;1.90;;
42726;SDS011;28372;56.832;60.658;2023-04-19T02:51:27;3.65;;;1.77;;
42726;SDS011;28372;56.832;60.658;2023-04-19T02:53:56;4.93;;;1.63;;
42726;SDS011;28372;56.832;60.658;2023-04-19T02:56:38;5.75;;;1.92;;
42726;SDS011;28372;56.832;60.658;2023-04-19T02:59:05;7.80;;;1.88;;
42726;SDS011;28372;56.832;60.658;2023-04-19T03:01:38;5.70;;;1.60;;
42726;SDS011;28372;56.832;60.658;2023-04-19T03:04:06;7.20;;;1.95;;
42726;SDS011;28372;56.832;60.658;2023-04-19T03:06:34;4.63;;;1.88;;
42726;SDS011;28372;56.832;60.658;2023-04-19T03:09:02;7.38;;;1.70;;
42726;SDS011;28372;56.832;60.658;2023-04-19T03:11:30;6.10;;;1.65;;
42726;SDS011;28372;56.832;60.658;2023-04-19T03:13:57;3.95;;;1.70;;
42726;SDS011;28372;56.832;60.658;2023-04-19T03:16:25;4.10;;;1.52;;
42726;SDS011;28372;56.832;60.658;2023-04-19T03:18:53;5.80;;;1.70;;
42726;SDS011;28372;56.832;60.658;2023-04-19T03:21:24;4.18;;;1.40;;
42726;SDS011;28372;56.832;60.658;2023-04-19T03:23:54;4.90;;;1.50;;
42726;SDS011;28372;56.832;60.658;2023-04-19T03:26:25;4.03;;;1.50;;
42726;SDS011;28372;56.832;60.658;2023-04-19T03:28:55;7.43;;;1.60;;
42726;SDS011;28372;56.832;60.658;2023-04-19T03:31:30;5.20;;;1.45;;
42726;SDS011;28372;56.832;60.658;2023-04-19T03:33:58;4.47;;;1.30;;
42726;SDS011;28372;56.832;60.658;2023-04-19T03:36:32;2.28;;;1.27;;
42726;SDS011;28372;56.832;60.658;2023-04-19T03:39:01;6.63;;;1.40;;
42726;SDS011;28372;56.832;60.658;2023-04-19T03:41:29;7.53;;;1.58;;
42726;SDS011;28372;56.832;60.658;2023-04-19T03:44:11;5.90;;;1.30;;
42726;SDS011;28372;56.832;60.658;2023-04-19T03:46:41;11.07;;;1.70;;
42726;SDS011;28372;56.832;60.658;2023-04-19T03:49:10;4.40;;;1.20;;
42726;SDS011;28372;56.832;60.658;2023-04-19T03:51:40;5.38;;;1.23;;
42726;SDS011;28372;56.832;60.658;2023-04-19T03:54:08;6.05;;;1.30;;
42726;SDS011;28372;56.832;60.658;2023-04-19T03:56:36;6.05;;;1.15;;
42726;SDS011;28372;56.832;60.658;2023-04-19T03:59:04;5.50;;;1.27;;
42726;SDS011;28372;56.832;60.658;2023-04-19T04:01:35;4.13;;;1.08;;
42726;SDS011;28372;56.832;60.658;2023-04-19T04:04:08;3.28;;;1.05;;
42726;SDS011;28372;56.832;60.658;2023-04-19T04:06:36;3.45;;;1.40;;
42726;SDS011;28372;56.832;60.658;2023-04-19T04:09:04;3.40;;;1.08;;
42726;SDS011;28372;56.832;60.658;2023-04-19T04:11:31;3.85;;;1.20;;
42726;SDS011;28372;56.832;60.658;2023-04-19T04:13:59;3.05;;;1.10;;
42726;SDS011;28372;56.832;60.658;2023-04-19T04:16:30;3.72;;;0.90;;
42726;SDS011;28372;56.832;60.658;2023-04-19T04:18:58;5.13;;;1.20;;
42726;SDS011;28372;56.832;60.658;2023-04-19T04:21:28;4.18;;;1.20;;
42726;SDS011;28372;56.832;60.658;2023-04-19T04:23:59;3.60;;;1.10;;
42726;SDS011;28372;56.832;60.658;2023-04-19T04:26:39;5.15;;;1.38;;
42726;SDS011;28372;56.832;60.658;2023-04-19T04:29:23;3.63;;;1.13;;
42726;SDS011;28372;56.832;60.658;2023-04-19T04:31:53;4.00;;;1.30;;
42726;SDS011;28372;56.832;60.658;2023-04-19T04:34:28;8.98;;;1.80;;
42726;SDS011;28372;56.832;60.658;2023-04-19T04:37:04;3.40;;;1.15;;
42726;SDS011;28372;56.832;60.658;2023-04-19T04:39:32;2.97;;;1.40;;
42726;SDS011;28372;56.832;60.658;2023-04-19T04:42:06;6.40;;;2.80;;
42726;SDS011;28372;56.832;60.658;2023-04-19T04:44:36;7.18;;;3.05;;
42726;SDS011;28372;56.832;60.658;2023-04-19T04:47:07;4.97;;;1.30;;
42726;SDS011;28372;56.832;60.658;2023-04-19T04:49:42;8.10;;;1.38;;
42726;SDS011;28372;56.832;60.658;2023-04-19T04:52:09;6.63;;;1.85;;
42726;SDS011;28372;56.832;60.658;2023-04-19T04:54:49;5.53;;;1.10;;
42726;SDS011;28372;56.832;60.658;2023-04-19T04:57:24;3.00;;;1.00;;
42726;SDS011;28372;56.832;60.658;2023-04-19T04:59:52;4.68;;;1.10;;
42726;SDS011;28372;56.832;60.658;2023-04-19T05:02:23;3.55;;;1.20;;
42726;SDS011;28372;56.832;60.658;2023-04-19T05:04:52;6.78;;;1.58;;
42726;SDS011;28372;56.832;60.658;2023-04-19T05:07:19;6.00;;;2.15;;
42726;SDS011;28372;56.832;60.658;2023-04-19T05:09:47;6.15;;;2.17;;
42726;SDS011;28372;56.832;60.658;2023-04-19T05:12:20;10.52;;;1.55;;
42726;SDS011;28372;56.832;60.658;2023-04-19T05:14:49;3.72;;;1.10;;
42726;SDS011;28372;56.832;60.658;2023-04-19T05:17:16;4.15;;;1.20;;
42726;SDS011;28372;56.832;60.658;2023-04-19T05:19:45;5.85;;;1.90;;
42726;SDS011;28372;56.832;60.658;2023-04-19T05:22:12;7.00;;;2.60;;
42726;SDS011;28372;56.832;60.658;2023-04-19T05:24:41;7.40;;;4.43;;
42726;SDS011;28372;56.832;60.658;2023-04-19T05:27:09;5.15;;;2.22;;
42726;SDS011;28372;56.832;60.658;2023-04-19T05:29:37;4.35;;;1.45;;
42726;SDS011;28372;56.832;60.658;2023-04-19T05:32:05;2.58;;;1.10;;
42726;SDS011;28372;56.832;60.658;2023-04-19T05:34:41;4.07;;;1.17;;
42726;SDS011;28372;56.832;60.658;2023-04-19T05:37:12;6.25;;;1.20;;
42726;SDS011;28372;56.832;60.658;2023-04-19T05:39:40;4.28;;;1.55;;
42726;SDS011;28372;56.832;60.658;2023-04-19T05:42:10;5.00;;;1.20;;
42726;SDS011;28372;56.832;60.658;2023-04-19T05:44:37;4.68;;;1.20;;
42726;SDS011;28372;56.832;60.658;2023-04-19T05:47:05;2.80;;;1.10;;
42726;SDS011;28372;56.832;60.658;2023-04-19T05:50:02;5.88;;;1.20;;
42726;SDS011;28372;56.832;60.658;2023-04-19T05:52:34;2.13;;;1.13;;
42726;SDS011;28372;56.832;60.658;2023-04-19T05:55:03;2.55;;;0.95;;
42726;SDS011;28372;56.832;60.658;2023-04-19T05:57:33;2.55;;;0.90;;
42726;SDS011;28372;56.832;60.658;2023-04-19T06:00:01;3.75;;;1.10;;
42726;SDS011;28372;56.832;60.658;2023-04-19T06:02:42;4.53;;;1.00;;
42726;SDS011;28372;56.832;60.658;2023-04-19T06:05:12;4.88;;;1.20;;
42726;SDS011;28372;56.832;60.658;2023-04-19T06:07:40;4.38;;;0.88;;
42726;SDS011;28372;56.832;60.658;2023-04-19T06:10:21;4.28;;;0.98;;
42726;SDS011;28372;56.832;60.658;2023-04-19T06:12:50;3.30;;;0.95;;
42726;SDS011;28372;56.832;60.658;2023-04-19T06:15:18;5.38;;;1.10;;
42726;SDS011;28372;56.832;60.658;2023-04-19T06:17:45;1.58;;;0.88;;
42726;SDS011;28372;56.832;60.658;2023-04-19T06:20:13;2.50;;;1.15;;
42726;SDS011;28372;56.832;60.658;2023-04-19T06:22:41;2.28;;;0.82;;
42726;SDS011;28372;56.832;60.658;2023-04-19T06:25:10;2.60;;;0.80;;
42726;SDS011;28372;56.832;60.658;2023-04-19T06:27:38;4.40;;;1.13;;
42726;SDS011;28372;56.832;60.658;2023-04-19T06:30:06;3.55;;;0.93;;
42726;SDS011;28372;56.832;60.658;2023-04-19T06:32:34;3.67;;;0.95;;
42726;SDS011;28372;56.832;60.658;2023-04-19T06:35:02;2.75;;;0.77;;
42726;SDS011;28372;56.832;60.658;2023-04-19T06:37:31;2.83;;;0.95;;
42726;SDS011;28372;56.832;60.658;2023-04-19T06:39:59;4.85;;;1.15;;
42726;SDS011;28372;56.832;60.658;2023-04-19T06:42:28;3.47;;;0.90;;
42726;SDS011;28372;56.832;60.658;2023-04-19T06:44:56;3.70;;;1.00;;
42726;SDS011;28372;56.832;60.658;2023-04-19T06:47:23;2.40;;;1.00;;
42726;SDS011;28372;56.832;60.658;2023-04-19T06:49:51;1.90;;;0.80;;
42726;SDS011;28372;56.832;60.658;2023-04-19T06:52:19;2.75;;;0.90;;
42726;SDS011;28372;56.832;60.658;2023-04-19T06:54:49;3.70;;;1.15;;
42726;SDS011;28372;56.832;60.658;2023-04-19T06:57:17;2.42;;;0.82;;
42726;SDS011;28372;56.832;60.658;2023-04-19T06:59:45;2.03;;;0.90;;
42726;SDS011;28372;56.832;60.658;2023-04-19T07:02:12;2.25;;;0.85;;
42726;SDS011;28372;56.832;60.658;2023-04-19T07:04:40;3.08;;;0.73;;
42726;SDS011;28372;56.832;60.658;2023-04-19T07:07:08;2.75;;;0.80;;
42726;SDS011;28372;56.832;60.658;2023-04-19T07:09:35;3.15;;;1.08;;
42726;SDS011;28372;56.832;60.658;2023-04-19T07:12:03;3.97;;;0.80;;
42726;SDS011;28372;56.832;60.658;2023-04-19T07:14:30;3.58;;;1.00;;
42726;SDS011;28372;56.832;60.658;2023-04-19T07:16:58;2.20;;;0.77;;
42726;SDS011;28372;56.832;60.658;2023-04-19T07:19:26;2.50;;;0.90;;
42726;SDS011;28372;56.832;60.658;2023-04-19T07:21:54;2.22;;;0.77;;
42726;SDS011;28372;56.832;60.658;2023-04-19T07:24:22;5.13;;;0.93;;
42726;SDS011;28372;56.832;60.658;2023-04-19T07:26:50;1.65;;;0.80;;
42726;SDS011;28372;56.832;60.658;2023-04-19T07:29:17;1.88;;;0.90;;
42726;SDS011;28372;56.832;60.658;2023-04-19T07:31:45;4.22;;;1.15;;
42726;SDS011;28372;56.832;60.658;2023-04-19T07:34:12;2.85;;;1.00;;
42726;SDS011;28372;56.832;60.658;2023-04-19T07:36:40;3.45;;;1.90;;
42726;SDS011;28372;56.832;60.658;2023-04-19T07:39:08;3.17;;;1.20;;
42726;SDS011;28372;56.832;60.658;2023-04-19T07:41:35;4.15;;;1.13;;
42726;SDS011;28372;56.832;60.658;2023-04-19T07:44:03;2.25;;;1.25;;
42726;SDS011;28372;56.832;60.658;2023-04-19T07:46:30;4.43;;;1.50;;
42726;SDS011;28372;56.832;60.658;2023-04-19T07:48:58;2.42;;;1.38;;
42726;SDS011;28372;56.832;60.658;2023-04-19T07:51:26;4.65;;;1.77;;
42726;SDS011;28372;56.832;60.658;2023-04-19T07:53:53;3.92;;;1.88;;
42726;SDS011;28372;56.832;60.658;2023-04-19T07:56:21;9.05;;;1.35;;
42726;SDS011;28372;56.832;60.658;2023-04-19T07:58:49;2.05;;;1.08;;
42726;SDS011;28372;56.832;60.658;2023-04-19T08:01:33;3.70;;;1.50;;
42726;SDS011;28372;56.832;60.658;2023-04-19T08:04:01;3.25;;;1.80;;
42726;SDS011;28372;56.832;60.658;2023-04-19T08:06:30;4.85;;;1.88;;
42726;SDS011;28372;56.832;60.658;2023-04-19T08:08:58;4.25;;;2.10;;
42726;SDS011;28372;56.832;60.658;2023-04-19T08:11:26;5.47;;;2.60;;
42726;SDS011;28372;56.832;60.658;2023-04-19T08:13:53;5.25;;;2.38;;
42726;SDS011;28372;56.832;60.658;2023-04-19T08:16:40;6.50;;;2.78;;
42726;SDS011;28372;56.832;60.658;2023-04-19T08:19:28;4.97;;;2.78;;
42726;SDS011;28372;56.832;60.658;2023-04-19T08:21:55;7.13;;;2.70;;
42726;SDS011;28372;56.832;60.658;2023-04-19T08:24:23;7.30;;;2.53;;
42726;SDS011;28372;56.832;60.658;2023-04-19T08:26:50;5.15;;;2.55;;
42726;SDS011;28372;56.832;60.658;2023-04-19T08:29:25;5.53;;;2.78;;
42726;SDS011;28372;56.832;60.658;2023-04-19T08:31:52;6.18;;;2.55;;
42726;SDS011;28372;56.832;60.658;2023-04-19T08:34:20;8.05;;;3.00;;
42726;SDS011;28372;56.832;60.658;2023-04-19T08:36:47;5.70;;;2.58;;
42726;SDS011;28372;56.832;60.658;2023-04-19T08:39:29;5.18;;;2.60;;
42726;SDS011;28372;56.832;60.658;2023-04-19T08:42:04;5.03;;;2.60;;
42726;SDS011;28372;56.832;60.658;2023-04-19T08:44:54;5.75;;;2.47;;
42726;SDS011;28372;56.832;60.658;2023-04-19T08:47:44;5.25;;;2.50;;
42726;SDS011;28372;56.832;60.658;2023-04-19T08:50:26;6.15;;;2.50;;
42726;SDS011;28372;56.832;60.658;2023-04-19T08:53:06;5.07;;;2.45;;
42726;SDS011;28372;56.832;60.658;2023-04-19T08:55:39;5.13;;;2.50;;
42726;SDS011;28372;56.832;60.658;2023-04-19T08:58:31;5.43;;;2.50;;
42726;SDS011;28372;56.832;60.658;2023-04-19T09:01:05;5.93;;;2.40;;
42726;SDS011;28372;56.832;60.658;2023-04-19T09:03:42;8.63;;;2.70;;
42726;SDS011;28372;56.832;60.658;2023-04-19T09:06:36;6.97;;;2.70;;
42726;SDS011;28372;56.832;60.658;2023-04-19T09:12:17;6.78;;;2.92;;
42726;SDS011;28372;56.832;60.658;2023-04-19T09:14:45;4.22;;;2.50;;
42726;SDS011;28372;56.832;60.658;2023-04-19T09:17:16;7.47;;;2.55;;
42726;SDS011;28372;56.832;60.658;2023-04-19T09:19:47;10.18;;;3.10;;
42726;SDS011;28372;56.832;60.658;2023-04-19T09:22:16;7.57;;;2.55;;
42726;SDS011;28372;56.832;60.658;2023-04-19T09:24:44;9.25;;;3.10;;
42726;SDS011;28372;56.832;60.658;2023-04-19T09:27:16;5.50;;;2.72;;
42726;SDS011;28372;56.832;60.658;2023-04-19T09:29:52;5.88;;;2.60;;
42726;SDS011;28372;56.832;60.658;2023-04-19T09:32:20;4.50;;;2.60;;
42726;SDS011;28372;56.832;60.658;2023-04-19T09:34:52;9.05;;;2.70;;
42726;SDS011;28372;56.832;60.658;2023-04-19T09:37:24;4.38;;;2.50;;
42726;SDS011;28372;56.832;60.658;2023-04-19T09:40:22;5.15;;;2.53;;
42726;SDS011;28372;56.832;60.658;2023-04-19T09:42:51;5.68;;;2.83;;
42726;SDS011;28372;56.832;60.658;2023-04-19T09:45:21;7.20;;;2.58;;
42726;SDS011;28372;56.832;60.658;2023-04-19T09:48:01;4.13;;;2.63;;
42726;SDS011;28372;56.832;60.658;2023-04-19T09:50:31;4.90;;;2.30;;
42726;SDS011;28372;56.832;60.658;2023-04-19T09:53:11;4.35;;;2.25;;
42726;SDS011;28372;56.832;60.658;2023-04-19T09:55:39;3.55;;;2.00;;
42726;SDS011;28372;56.832;60.658;2023-04-19T09:58:23;4.53;;;2.17;;
42726;SDS011;28372;56.832;60.658;2023-04-19T10:01:00;4.75;;;2.53;;
42726;SDS011;28372;56.832;60.658;2023-04-19T10:03:41;5.55;;;2.30;;
42726;SDS011;28372;56.832;60.658;2023-04-19T10:06:14;6.05;;;2.33;;
42726;SDS011;28372;56.832;60.658;2023-04-19T10:09:02;4.38;;;2.28;;
42726;SDS011;28372;56.832;60.658;2023-04-19T10:11:34;4.65;;;2.28;;
42726;SDS011;28372;56.832;60.658;2023-04-19T10:16:37;4.07;;;2.20;;
42726;SDS011;28372;56.832;60.658;2023-04-19T10:19:08;7.15;;;2.40;;
42726;SDS011;28372;56.832;60.658;2023-04-19T10:21:38;3.88;;;2.35;;
42726;SDS011;28372;56.832;60.658;2023-04-19T10:24:08;6.00;;;2.45;;
42726;SDS011;28372;56.832;60.658;2023-04-19T10:32:17;6.45;;;2.50;;
42726;SDS011;28372;56.832;60.658;2023-04-19T10:34:45;3.78;;;2.20;;
42726;SDS011;28372;56.832;60.658;2023-04-19T10:37:13;5.60;;;2.40;;
42726;SDS011;28372;56.832;60.658;2023-04-19T10:39:41;4.80;;;1.90;;
42726;SDS011;28372;56.832;60.658;2023-04-19T10:42:10;5.15;;;1.92;;
42726;SDS011;28372;56.832;60.658;2023-04-19T10:44:38;4.78;;;2.00;;
42726;SDS011;28372;56.832;60.658;2023-04-19T10:47:06;4.88;;;2.17;;
42726;SDS011;28372;56.832;60.658;2023-04-19T10:49:43;3.10;;;1.90;;
42726;SDS011;28372;56.832;60.658;2023-04-19T10:52:27;5.10;;;2.10;;
42726;SDS011;28372;56.832;60.658;2023-04-19T10:54:57;4.32;;;2.15;;
42726;SDS011;28372;56.832;60.658;2023-04-19T10:57:59;5.65;;;2.10;;
42726;SDS011;28372;56.832;60.658;2023-04-19T11:00:30;4.63;;;2.00;;
42726;SDS011;28372;56.832;60.658;2023-04-19T11:06:19;3.97;;;2.00;;
42726;SDS011;28372;56.832;60.658;2023-04-19T11:08:53;5.68;;;2.10;;
42726;SDS011;28372;56.832;60.658;2023-04-19T11:11:20;4.75;;;2.03;;
42726;SDS011;28372;56.832;60.658;2023-04-19T11:13:55;3.50;;;1.80;;
42726;SDS011;28372;56.832;60.658;2023-04-19T11:16:23;3.40;;;1.80;;
42726;SDS011;28372;56.832;60.658;2023-04-19T11:19:13;6.07;;;1.98;;
42726;SDS011;28372;56.832;60.658;2023-04-19T11:21:47;9.57;;;2.33;;
42726;SDS011;28372;56.832;60.658;2023-04-19T11:24:17;4.80;;;2.10;;
42726;SDS011;28372;56.832;60.658;2023-04-19T11:26:46;6.10;;;2.00;;
42726;SDS011;28372;56.832;60.658;2023-04-19T11:29:14;4.88;;;2.00;;
42726;SDS011;28372;56.832;60.658;2023-04-19T11:31:43;4.45;;;1.73;;
42726;SDS011;28372;56.832;60.658;2023-04-19T11:34:12;5.60;;;1.85;;
42726;SDS011;28372;56.832;60.658;2023-04-19T11:36:47;6.25;;;1.88;;
42726;SDS011;28372;56.832;60.658;2023-04-19T11:39:18;5.35;;;1.80;;
42726;SDS011;28372;56.832;60.658;2023-04-19T11:41:45;3.17;;;1.60;;
42726;SDS011;28372;56.832;60.658;2023-04-19T11:44:16;2.90;;;1.70;;
42726;SDS011;28372;56.832;60.658;2023-04-19T11:46:57;5.47;;;2.00;;
42726;SDS011;28372;56.832;60.658;2023-04-19T11:49:30;4.32;;;1.75;;
42726;SDS011;28372;56.832;60.658;2023-04-19T11:52:00;6.18;;;2.00;;
42726;SDS011;28372;56.832;60.658;2023-04-19T11:54:34;7.22;;;2.42;;
42726;SDS011;28372;56.832;60.658;2023-04-19T11:57:05;4.05;;;1.85;;
42726;SDS011;28372;56.832;60.658;2023-04-19T11:59:34;4.78;;;1.77;;
42726;SDS011;28372;56.832;60.658;2023-04-19T12:02:09;6.32;;;2.10;;
42726;SDS011;28372;56.832;60.658;2023-04-19T12:04:42;7.15;;;1.88;;
42726;SDS011;28372;56.832;60.658;2023-04-19T12:07:13;4.72;;;1.90;;
42726;SDS011;28372;56.832;60.658;2023-04-19T12:09:41;4.30;;;1.88;;
42726;SDS011;28372;56.832;60.658;2023-04-19T12:12:08;6.80;;;1.95;;
42726;SDS011;28372;56.832;60.658;2023-04-19T12:14:38;4.53;;;1.70;;
42726;SDS011;28372;56.832;60.658;2023-04-19T12:17:21;3.47;;;1.80;;
42726;SDS011;28372;56.832;60.658;2023-04-19T12:19:49;4.15;;;1.98;;
42726;SDS011;28372;56.832;60.658;2023-04-19T12:22:18;4.05;;;1.88;;
42726;SDS011;28372;56.832;60.658;2023-04-19T12:24:52;3.72;;;1.95;;
42726;SDS011;28372;56.832;60.658;2023-04-19T12:27:21;5.38;;;2.45;;
42726;SDS011;28372;56.832;60.658;2023-04-19T12:29:51;6.10;;;1.73;;
42726;SDS011;28372;56.832;60.658;2023-04-19T12:32:19;7.30;;;2.25;;
42726;SDS011;28372;56.832;60.658;2023-04-19T12:34:47;3.45;;;1.70;;
42726;SDS011;28372;56.832;60.658;2023-04-19T12:37:14;7.35;;;2.33;;
42726;SDS011;28372;56.832;60.658;2023-04-19T12:39:42;4.13;;;1.60;;
42726;SDS011;28372;56.832;60.658;2023-04-19T12:42:09;6.97;;;2.22;;
42726;SDS011;28372;56.832;60.658;2023-04-19T12:44:37;3.67;;;1.80;;
42726;SDS011;28372;56.832;60.658;2023-04-19T12:47:04;7.35;;;2.35;;
42726;SDS011;28372;56.832;60.658;2023-04-19T12:49:32;5.55;;;1.70;;
42726;SDS011;28372;56.832;60.658;2023-04-19T12:52:00;3.90;;;1.48;;
42726;SDS011;28372;56.832;60.658;2023-04-19T12:54:27;4.50;;;1.77;;
42726;SDS011;28372;56.832;60.658;2023-04-19T12:56:55;18.48;;;3.97;;
42726;SDS011;28372;56.832;60.658;2023-04-19T12:59:23;4.15;;;1.80;;
42726;SDS011;28372;56.832;60.658;2023-04-19T13:01:51;3.83;;;1.80;;
42726;SDS011;28372;56.832;60.658;2023-04-19T13:04:19;6.40;;;2.20;;
42726;SDS011;28372;56.832;60.658;2023-04-19T13:06:50;7.03;;;1.85;;
42726;SDS011;28372;56.832;60.658;2023-04-19T13:09:18;3.92;;;1.73;;
42726;SDS011;28372;56.832;60.658;2023-04-19T13:11:45;4.00;;;1.70;;
42726;SDS011;28372;56.832;60.658;2023-04-19T13:14:13;4.15;;;1.65;;
42726;SDS011;28372;56.832;60.658;2023-04-19T13:16:41;4.60;;;1.70;;
42726;SDS011;28372;56.832;60.658;2023-04-19T13:19:09;7.88;;;1.88;;
42726;SDS011;28372;56.832;60.658;2023-04-19T13:21:37;4.25;;;1.70;;
42726;SDS011;28372;56.832;60.658;2023-04-19T13:24:04;5.53;;;1.70;;
42726;SDS011;28372;56.832;60.658;2023-04-19T13:26:33;3.05;;;1.63;;
42726;SDS011;28372;56.832;60.658;2023-04-19T13:29:01;5.03;;;1.83;;
42726;SDS011;28372;56.832;60.658;2023-04-19T13:31:29;6.10;;;2.00;;
42726;SDS011;28372;56.832;60.658;2023-04-19T13:33:57;3.33;;;1.45;;
42726;SDS011;28372;56.832;60.658;2023-04-19T13:36:26;5.90;;;2.03;;
42726;SDS011;28372;56.832;60.658;2023-04-19T13:38:54;4.22;;;1.50;;
42726;SDS011;28372;56.832;60.658;2023-04-19T13:41:22;5.72;;;2.08;;
42726;SDS011;28372;56.832;60.658;2023-04-19T13:43:49;5.25;;;2.13;;
42726;SDS011;28372;56.832;60.658;2023-04-19T13:46:17;5.93;;;1.70;;
42726;SDS011;28372;56.832;60.658;2023-04-19T13:48:46;4.47;;;1.88;;
42726;SDS011;28372;56.832;60.658;2023-04-19T13:51:13;4.20;;;1.77;;
42726;SDS011;28372;56.832;60.658;2023-04-19T13:53:41;5.82;;;2.30;;
42726;SDS011;28372;56.832;60.658;2023-04-19T13:56:09;8.75;;;2.00;;
42726;SDS011;28372;56.832;60.658;2023-04-19T13:58:37;3.50;;;1.65;;
42726;SDS011;28372;56.832;60.658;2023-04-19T14:01:07;6.80;;;1.90;;
42726;SDS011;28372;56.832;60.658;2023-04-19T14:03:35;3.63;;;2.00;;
42726;SDS011;28372;56.832;60.658;2023-04-19T14:06:05;4.22;;;1.85;;
42726;SDS011;28372;56.832;60.658;2023-04-19T14:08:34;4.63;;;1.60;;
42726;SDS011;28372;56.832;60.658;2023-04-19T14:11:02;5.70;;;1.95;;
42726;SDS011;28372;56.832;60.658;2023-04-19T14:13:30;4.68;;;2.00;;
42726;SDS011;28372;56.832;60.658;2023-04-19T14:15:58;5.25;;;1.98;;
42726;SDS011;28372;56.832;60.658;2023-04-19T14:18:25;4.65;;;2.05;;
42726;SDS011;28372;56.832;60.658;2023-04-19T14:20:53;4.47;;;1.77;;
42726;SDS011;28372;56.832;60.658;2023-04-19T14:23:21;4.38;;;1.90;;
42726;SDS011;28372;56.832;60.658;2023-04-19T14:25:49;4.28;;;1.70;;
42726;SDS011;28372;56.832;60.658;2023-04-19T14:28:17;6.68;;;1.70;;
42726;SDS011;28372;56.832;60.658;2023-04-19T14:30:45;4.38;;;1.70;;
42726;SDS011;28372;56.832;60.658;2023-04-19T14:33:13;5.53;;;1.73;;
42726;SDS011;28372;56.832;60.658;2023-04-19T14:35:41;3.92;;;1.60;;
42726;SDS011;28372;56.832;60.658;2023-04-19T14:38:09;4.80;;;1.50;;
42726;SDS011;28372;56.832;60.658;2023-04-19T14:40:37;3.75;;;1.67;;
42726;SDS011;28372;56.832;60.658;2023-04-19T14:43:04;5.18;;;1.90;;
42726;SDS011;28372;56.832;60.658;2023-04-19T14:45:33;3.55;;;1.48;;
42726;SDS011;28372;56.832;60.658;2023-04-19T14:48:01;4.95;;;1.75;;
42726;SDS011;28372;56.832;60.658;2023-04-19T14:50:28;5.20;;;2.00;;
42726;SDS011;28372;56.832;60.658;2023-04-19T14:52:56;7.75;;;2.42;;
42726;SDS011;28372;56.832;60.658;2023-04-19T14:55:24;6.00;;;2.10;;
42726;SDS011;28372;56.832;60.658;2023-04-19T14:57:53;4.55;;;1.95;;
42726;SDS011;28372;56.832;60.658;2023-04-19T15:00:21;5.43;;;1.92;;
42726;SDS011;28372;56.832;60.658;2023-04-19T15:02:49;5.43;;;2.40;;
42726;SDS011;28372;56.832;60.658;2023-04-19T15:05:17;6.20;;;2.83;;